createdAt,value
2022-11-09T00:01:34.527Z,51163.84
2022-11-09T00:04:02.180Z,51207.56
2022-11-09T00:06:29.314Z,51203.59
2022-11-09T00:08:55.913Z,51199.63
2022-11-09T00:11:23.109Z,51211.53
2022-11-09T00:13:49.758Z,51187.69
2022-11-09T00:16:17.858Z,51231.41
2022-11-09T00:18:47.557Z,51239.38
2022-11-09T00:21:15.572Z,51199.63
2022-11-09T00:23:42.284Z,51211.53
2022-11-09T00:26:10.187Z,51223.47
2022-11-09T00:28:37.245Z,51175.75
2022-11-09T00:31:08.146Z,51177.75
2022-11-09T00:33:35.226Z,51211.53
2022-11-09T00:36:10.466Z,51235.41
2022-11-09T00:38:38.510Z,51217.50
2022-11-09T00:41:06.066Z,51209.56
2022-11-09T00:43:33.200Z,51259.25
2022-11-09T00:46:00.122Z,51207.56
2022-11-09T00:48:27.063Z,51223.47
2022-11-09T00:50:54.680Z,51247.31
2022-11-09T00:53:22.545Z,51183.72
2022-11-09T00:55:55.428Z,51237.38
2022-11-09T00:58:22.885Z,51231.41
2022-11-09T01:00:50.373Z,51195.63
2022-11-09T01:03:17.350Z,51227.44
2022-11-09T01:05:44.272Z,51223.47
2022-11-09T01:08:10.993Z,51195.63
2022-11-09T01:10:47.855Z,51227.44
2022-11-09T01:13:15.541Z,51207.56
2022-11-09T01:15:45.367Z,51175.75
2022-11-09T01:18:12.734Z,51221.47
2022-11-09T01:20:40.575Z,51211.53
2022-11-09T01:23:07.721Z,51203.59
2022-11-09T01:25:34.462Z,51215.53
2022-11-09T01:28:01.235Z,51239.38
2022-11-09T01:30:28.111Z,51187.69
2022-11-09T01:32:54.790Z,51215.53
2022-11-09T01:35:21.838Z,51199.63
2022-11-09T01:37:48.517Z,51227.44
2022-11-09T01:40:15.229Z,51215.53
2022-11-09T01:42:41.904Z,51195.63
2022-11-09T01:45:18.042Z,51211.53
2022-11-09T01:47:49.405Z,51215.53
2022-11-09T01:50:17.853Z,51223.47
2022-11-09T01:52:47.727Z,51219.50
2022-11-09T01:55:16.804Z,51201.59
2022-11-09T01:57:45.875Z,51195.63
2022-11-09T02:00:14.252Z,51203.59
2022-11-09T02:02:44.399Z,51185.69
2022-11-09T02:05:14.809Z,51219.50
2022-11-09T02:07:42.472Z,51193.66
2022-11-09T02:10:12.369Z,51207.56
2022-11-09T02:12:39.298Z,51187.69
2022-11-09T02:15:08.762Z,51217.50
2022-11-09T02:17:36.165Z,51207.56
2022-11-09T02:20:07.086Z,51203.59
2022-11-09T02:22:34.861Z,51219.50
2022-11-09T02:25:02.261Z,51211.53
2022-11-09T02:27:28.983Z,51187.69
2022-11-09T02:29:57.643Z,51203.59
2022-11-09T02:32:26.061Z,51183.72
2022-11-09T02:34:55.694Z,51235.41
2022-11-09T02:37:37.085Z,51201.59
2022-11-09T02:40:06.899Z,51247.31
2022-11-09T02:42:33.796Z,51215.53
2022-11-09T02:45:00.457Z,51191.66
2022-11-09T02:47:27.419Z,51215.53
2022-11-09T02:49:54.198Z,51223.47
2022-11-09T02:52:20.816Z,51199.63
2022-11-09T02:54:47.627Z,51207.56
2022-11-09T02:57:14.750Z,51219.50
2022-11-09T02:59:42.633Z,51223.47
2022-11-09T03:02:10.790Z,51211.53
2022-11-09T03:04:39.503Z,51219.50
2022-11-09T03:07:07.233Z,51223.47
2022-11-09T03:09:33.955Z,51231.41
2022-11-09T03:12:23.042Z,51247.31
2022-11-09T03:14:50.623Z,51215.53
2022-11-09T03:17:18.479Z,51251.31
2022-11-09T03:19:45.470Z,51239.38
2022-11-09T03:22:12.400Z,51243.34
2022-11-09T03:24:39.321Z,51241.34
2022-11-09T03:27:06.420Z,51241.34
2022-11-09T03:29:33.739Z,51211.53
2022-11-09T03:32:01.699Z,51239.38
2022-11-09T03:34:28.629Z,51247.31
2022-11-09T03:36:55.229Z,51225.47
2022-11-09T03:39:22.468Z,51219.50
2022-11-09T03:41:49.282Z,51251.31
2022-11-09T03:44:16.199Z,51247.31
2022-11-09T03:46:43.991Z,51207.56
2022-11-09T03:49:10.605Z,51215.53
2022-11-09T03:51:37.355Z,51215.53
2022-11-09T03:54:04.184Z,51223.47
2022-11-09T03:56:30.851Z,51225.47
2022-11-09T03:58:57.597Z,51227.44
2022-11-09T04:01:24.279Z,51199.63
2022-11-09T04:03:51.054Z,51207.56
2022-11-09T04:06:17.775Z,51217.50
2022-11-09T04:08:49.926Z,51247.31
2022-11-09T04:11:19.332Z,51283.09
2022-11-09T04:13:47.395Z,51217.50
2022-11-09T04:16:14.111Z,51201.59
2022-11-09T04:18:40.698Z,51223.47
2022-11-09T04:21:07.429Z,51227.44
2022-11-09T04:23:34.180Z,51203.59
2022-11-09T04:26:00.873Z,51243.34
2022-11-09T04:28:27.530Z,51215.53
2022-11-09T04:30:54.085Z,51217.50
2022-11-09T04:33:21.242Z,51235.41
2022-11-09T04:35:48.187Z,51231.41
2022-11-09T04:38:14.820Z,51239.38
2022-11-09T04:40:41.709Z,51219.50
2022-11-09T04:43:10.859Z,51239.38
2022-11-09T04:45:37.506Z,51199.63
2022-11-09T04:48:05.539Z,51199.63
2022-11-09T04:50:32.507Z,51195.63
2022-11-09T04:53:09.308Z,51191.66
2022-11-09T04:55:36.405Z,51271.19
2022-11-09T04:58:03.286Z,51211.53
2022-11-09T05:00:30.065Z,51201.59
2022-11-09T05:02:59.457Z,51231.41
2022-11-09T05:05:26.097Z,51201.59
2022-11-09T05:07:52.850Z,51215.53
2022-11-09T05:10:19.608Z,51263.22
2022-11-09T05:12:46.271Z,51221.47
2022-11-09T05:15:12.840Z,51235.41
2022-11-09T05:17:39.474Z,51249.31
2022-11-09T05:20:06.371Z,51245.34
2022-11-09T05:22:51.427Z,51283.09
2022-11-09T05:25:18.079Z,51219.50
2022-11-09T05:27:44.726Z,51239.38
2022-11-09T05:30:11.695Z,51251.31
2022-11-09T05:32:41.142Z,51243.34
2022-11-09T05:35:09.468Z,51239.38
2022-11-09T05:37:38.259Z,51271.19
2022-11-09T05:40:05.233Z,51239.38
2022-11-09T05:42:31.947Z,51219.50
2022-11-09T05:45:15.099Z,51227.44
2022-11-09T05:47:45.298Z,51223.47
2022-11-09T05:50:13.588Z,51215.53
2022-11-09T05:52:40.480Z,51243.34
2022-11-09T05:55:07.668Z,51191.66
2022-11-09T05:57:34.315Z,51247.31
2022-11-09T06:00:00.882Z,51243.34
2022-11-09T06:02:30.459Z,51213.53
2022-11-09T06:04:57.065Z,51263.22
2022-11-09T06:07:23.901Z,51219.50
2022-11-09T06:09:51.038Z,51235.41
2022-11-09T06:12:17.598Z,51231.41
2022-11-09T06:14:44.211Z,51231.41
2022-11-09T06:17:10.830Z,51285.09
2022-11-09T06:19:37.614Z,51247.31
2022-11-09T06:22:04.209Z,51247.31
2022-11-09T06:24:30.794Z,51235.41
2022-11-09T06:26:57.627Z,51263.22
2022-11-09T06:29:24.303Z,51239.38
2022-11-09T06:31:51.434Z,51275.16
2022-11-09T06:34:18.239Z,51251.31
2022-11-09T06:36:44.905Z,51207.56
2022-11-09T06:39:11.512Z,51219.50
2022-11-09T06:41:38.161Z,51213.53
2022-11-09T06:44:08.003Z,51241.34
2022-11-09T06:46:34.673Z,51245.34
2022-11-09T06:49:01.336Z,51227.44
2022-11-09T06:51:28.056Z,51231.41
2022-11-09T06:53:54.820Z,51251.31
2022-11-09T06:56:21.565Z,51241.34
2022-11-09T06:58:48.217Z,51275.16
2022-11-09T07:01:17.040Z,51239.38
2022-11-09T07:03:43.742Z,51191.66
2022-11-09T07:06:11.143Z,51223.47
2022-11-09T07:08:38.418Z,51243.34
2022-11-09T07:11:10.074Z,51231.41
2022-11-09T07:13:39.073Z,51231.41
2022-11-09T07:16:06.427Z,51271.19
2022-11-09T07:18:33.317Z,51233.41
2022-11-09T07:20:59.939Z,51201.59
2022-11-09T07:23:28.431Z,51223.47
2022-11-09T07:25:55.205Z,51203.59
2022-11-09T07:28:21.869Z,51239.38
2022-11-09T07:30:51.838Z,51267.19
2022-11-09T07:33:18.934Z,51233.41
2022-11-09T07:35:46.672Z,51239.38
2022-11-09T07:38:13.831Z,51263.22
2022-11-09T07:40:40.859Z,51235.41
2022-11-09T07:43:08.055Z,51219.50
2022-11-09T07:45:37.184Z,51247.31
2022-11-09T07:48:05.456Z,51223.47
2022-11-09T07:50:32.612Z,51259.25
2022-11-09T07:53:00.511Z,51229.44
2022-11-09T07:55:27.979Z,51227.44
2022-11-09T07:57:55.774Z,51227.44
2022-11-09T08:00:23.779Z,51231.41
2022-11-09T08:02:50.699Z,51227.44
2022-11-09T08:05:17.363Z,51223.47
2022-11-09T08:07:44.076Z,51227.44
2022-11-09T08:10:10.731Z,51227.44
2022-11-09T08:12:37.632Z,51243.34
2022-11-09T08:15:05.072Z,51267.19
2022-11-09T08:17:31.889Z,51247.31
2022-11-09T08:19:58.634Z,51215.53
2022-11-09T08:22:25.231Z,51219.50
2022-11-09T08:24:52.149Z,51223.47
2022-11-09T08:27:19.112Z,51239.38
2022-11-09T08:29:45.815Z,51225.47
2022-11-09T08:32:12.402Z,51225.47
2022-11-09T08:34:39.001Z,51219.50
2022-11-09T08:37:05.757Z,51219.50
2022-11-09T08:39:32.323Z,51243.34
2022-11-09T08:41:58.988Z,51235.41
2022-11-09T08:44:25.637Z,51227.44
2022-11-09T08:46:52.212Z,51239.38
2022-11-09T08:49:18.805Z,51239.38
2022-11-09T08:51:45.449Z,51207.56
2022-11-09T08:54:14.103Z,51231.41
2022-11-09T08:56:41.187Z,51265.22
2022-11-09T08:59:07.818Z,51257.25
2022-11-09T09:01:34.507Z,51213.53
2022-11-09T09:04:01.130Z,51211.53
2022-11-09T09:06:31.044Z,51227.44
2022-11-09T09:08:57.943Z,51223.47
2022-11-09T09:11:24.556Z,51211.53
2022-11-09T09:13:51.115Z,51225.47
2022-11-09T09:16:17.795Z,51235.41
2022-11-09T09:18:44.449Z,51217.50
2022-11-09T09:21:11.207Z,51195.63
2022-11-09T09:23:37.838Z,51181.72
2022-11-09T09:26:04.478Z,51199.63
2022-11-09T09:28:31.155Z,51213.53
2022-11-09T09:30:59.700Z,51235.41
2022-11-09T09:33:27.066Z,51193.66
2022-11-09T09:35:57.460Z,51215.53
2022-11-09T09:38:24.644Z,51227.44
2022-11-09T09:40:59.210Z,51201.59
2022-11-09T09:43:31.121Z,51231.41
2022-11-09T09:45:59.386Z,51225.47
2022-11-09T09:48:33.518Z,51193.66
2022-11-09T09:51:03.902Z,51219.50
2022-11-09T09:53:37.892Z,51235.41
2022-11-09T09:56:06.563Z,51223.47
2022-11-09T09:58:34.304Z,51239.38
2022-11-09T10:01:06.905Z,51235.41
2022-11-09T10:03:33.690Z,51185.69
2022-11-09T10:06:03.178Z,51239.38
2022-11-09T10:09:02.291Z,51199.63
2022-11-09T10:11:36.639Z,51213.53
2022-11-09T10:14:03.262Z,51207.56
2022-11-09T10:16:32.637Z,51223.47
2022-11-09T10:19:02.026Z,51243.34
2022-11-09T10:21:39.560Z,51215.53
2022-11-09T10:24:25.187Z,51223.47
2022-11-09T10:26:52.840Z,51223.47
2022-11-09T10:29:35.145Z,51215.53
2022-11-09T10:32:09.900Z,51219.50
2022-11-09T10:34:40.539Z,51215.53
2022-11-09T10:37:13.520Z,51211.53
2022-11-09T10:39:42.346Z,51215.53
2022-11-09T10:42:27.628Z,51211.53
2022-11-09T10:45:15.690Z,51227.44
2022-11-09T10:48:01.965Z,51219.50
2022-11-09T10:50:48.214Z,51187.69
2022-11-09T10:53:34.057Z,51187.69
2022-11-09T10:56:21.823Z,51195.63
2022-11-09T10:59:26.485Z,51183.72
2022-11-09T11:02:27.099Z,51219.50
2022-11-09T11:05:18.153Z,51217.50
2022-11-09T11:08:19.293Z,51191.66
2022-11-09T11:11:35.833Z,51191.66
2022-11-09T11:14:27.616Z,51165.81
2022-11-09T11:17:26.723Z,51195.63
2022-11-09T11:20:26.361Z,51223.47
2022-11-09T11:23:13.212Z,51219.50
2022-11-09T11:26:03.640Z,51191.66
2022-11-09T11:28:51.248Z,51195.63
2022-11-09T11:31:36.284Z,51191.66
2022-11-09T11:34:45.619Z,51211.53
2022-11-09T11:37:37.894Z,51195.63
2022-11-09T11:40:28.949Z,51199.63
2022-11-09T11:43:35.729Z,51223.47
2022-11-09T11:46:38.551Z,51203.59
2022-11-09T11:49:26.959Z,51171.78
2022-11-09T11:52:31.211Z,51171.78
2022-11-09T11:55:19.556Z,51187.69
2022-11-09T11:58:13.994Z,51159.84
2022-11-09T12:01:12.017Z,51191.66
2022-11-09T12:04:14.131Z,51171.78
2022-11-09T12:06:59.582Z,51191.66
2022-11-09T12:09:56.647Z,51165.81
2022-11-09T12:12:44.770Z,51167.81
2022-11-09T12:15:42.776Z,51187.69
2022-11-09T12:18:33.894Z,51175.75
2022-11-09T12:21:22.830Z,51181.72
2022-11-09T12:24:18.499Z,51159.84
2022-11-09T12:27:31.751Z,51159.84
2022-11-09T12:30:24.090Z,51151.91
2022-11-09T12:33:16.760Z,51161.84
2022-11-09T12:36:09.186Z,51159.84
2022-11-09T12:38:54.396Z,51139.97
2022-11-09T12:41:40.728Z,51167.81
2022-11-09T12:44:28.467Z,51138.00
2022-11-09T12:47:15.934Z,51124.06
2022-11-09T12:50:01.174Z,51120.09
2022-11-09T12:52:49.031Z,51122.09
2022-11-09T12:55:43.720Z,51118.13
2022-11-09T12:58:30.598Z,51112.16
2022-11-09T13:01:34.453Z,51072.41
2022-11-09T13:04:20.946Z,51076.38
2022-11-09T13:07:09.498Z,51096.25
2022-11-09T13:09:56.079Z,51100.22
2022-11-09T13:12:43.064Z,51132.03
2022-11-09T13:15:29.835Z,51076.38
2022-11-09T13:18:47.128Z,51068.41
2022-11-09T13:21:33.185Z,51064.44
2022-11-09T13:24:30.905Z,51088.28
2022-11-09T13:27:34.837Z,51060.47
2022-11-09T13:30:23.241Z,51068.41
2022-11-09T13:33:09.766Z,51080.34
2022-11-09T13:35:55.625Z,51088.28
2022-11-09T13:38:41.726Z,51122.09
2022-11-09T13:41:30.572Z,51096.25
2022-11-09T13:44:18.718Z,51082.34
2022-11-09T13:47:04.942Z,51072.41
2022-11-09T13:49:50.905Z,51092.28
2022-11-09T13:52:53.206Z,51112.16
2022-11-09T13:55:39.703Z,51104.19
2022-11-09T13:58:37.451Z,51100.22
2022-11-09T14:01:35.562Z,51092.28
2022-11-09T14:04:29.817Z,51124.06
2022-11-09T14:07:26.358Z,51094.25
2022-11-09T14:10:23.361Z,51104.19
2022-11-09T14:13:08.352Z,51100.22
2022-11-09T14:16:16.941Z,51112.16
2022-11-09T14:19:06.679Z,51112.16
2022-11-09T14:21:52.385Z,51143.97
2022-11-09T14:24:38.089Z,51112.16
2022-11-09T14:27:23.605Z,51116.13
2022-11-09T14:30:20.462Z,51136.00
2022-11-09T14:33:19.667Z,51112.16
2022-11-09T14:36:05.277Z,51088.28
2022-11-09T14:38:50.237Z,51132.03
2022-11-09T14:41:35.259Z,51112.16
2022-11-09T14:44:24.206Z,51159.84
2022-11-09T14:47:15.699Z,51143.97
2022-11-09T14:50:00.968Z,51147.94
2022-11-09T14:52:46.722Z,51153.91
2022-11-09T14:55:32.176Z,51132.03
2022-11-09T14:58:18.852Z,51163.84
2022-11-09T15:01:09.294Z,51155.88
2022-11-09T15:04:14.149Z,51100.22
2022-11-09T15:07:04.164Z,51193.66
2022-11-09T15:09:53.990Z,51136.00
2022-11-09T15:12:46.973Z,51136.00
2022-11-09T15:15:34.224Z,51151.91
2022-11-09T15:18:21.168Z,51143.97
2022-11-09T15:21:20.755Z,51175.75
2022-11-09T15:24:06.035Z,51143.97
2022-11-09T15:26:52.895Z,51153.91
2022-11-09T15:29:39.883Z,51159.84
2022-11-09T15:32:25.592Z,51153.91
2022-11-09T15:35:16.801Z,51120.09
2022-11-09T15:38:02.220Z,51159.84
2022-11-09T15:40:47.543Z,51143.97
2022-11-09T15:43:32.559Z,51175.75
2022-11-09T15:46:19.653Z,51149.91
2022-11-09T15:49:16.288Z,51167.81
2022-11-09T15:52:01.495Z,51163.84
2022-11-09T15:54:47.109Z,51175.75
2022-11-09T15:57:32.600Z,51122.09
2022-11-09T16:00:20.897Z,51124.06
2022-11-09T16:03:07.068Z,51139.97
2022-11-09T16:05:52.376Z,51151.91
2022-11-09T16:08:37.885Z,51147.94
2022-11-09T16:11:23.370Z,51122.09
2022-11-09T16:14:08.698Z,51171.78
2022-11-09T16:16:53.973Z,51139.97
2022-11-09T16:19:39.712Z,51171.78
2022-11-09T16:22:29.325Z,51112.16
2022-11-09T16:25:14.948Z,51163.84
2022-11-09T16:28:00.387Z,51159.84
2022-11-09T16:30:46.819Z,51138.00
2022-11-09T16:33:32.565Z,51147.94
2022-11-09T16:36:19.471Z,51163.84
2022-11-09T16:39:05.663Z,51155.88
2022-11-09T16:41:51.409Z,51155.88
2022-11-09T16:44:38.170Z,51143.97
2022-11-09T16:47:23.226Z,51143.97
2022-11-09T16:50:08.704Z,51147.94
2022-11-09T16:52:54.203Z,51143.97
2022-11-09T16:55:39.524Z,51163.84
2022-11-09T16:58:24.809Z,51195.63
2022-11-09T17:01:12.913Z,51161.84
2022-11-09T17:03:59.145Z,51143.97
2022-11-09T17:06:44.404Z,51136.00
2022-11-09T17:09:33.333Z,51163.84
2022-11-09T17:12:18.710Z,51171.78
2022-11-09T17:15:04.150Z,51171.78
2022-11-09T17:17:49.543Z,51185.69
2022-11-09T17:20:34.487Z,51155.88
2022-11-09T17:23:21.302Z,51163.84
2022-11-09T17:26:07.447Z,51145.94
2022-11-09T17:28:52.640Z,51167.81
2022-11-09T17:31:38.391Z,51171.78
2022-11-09T17:34:23.500Z,51151.91
2022-11-09T17:37:08.558Z,51171.78
2022-11-09T17:39:53.888Z,51179.75
2022-11-09T17:42:38.910Z,51151.91
2022-11-09T17:45:24.478Z,51136.00
2022-11-09T17:48:09.701Z,51169.78
2022-11-09T17:50:54.944Z,51155.88
2022-11-09T17:53:40.502Z,51171.78
2022-11-09T17:56:25.929Z,51157.88
2022-11-09T17:59:12.292Z,51155.88
2022-11-09T18:01:57.383Z,51163.84
2022-11-09T18:04:42.981Z,51163.84
2022-11-09T18:07:29.840Z,51143.97
2022-11-09T18:10:15.237Z,51175.75
2022-11-09T18:13:00.656Z,51179.75
2022-11-09T18:15:45.948Z,51167.81
2022-11-09T18:18:31.139Z,51167.81
2022-11-09T18:21:17.677Z,51143.97
2022-11-09T18:24:02.738Z,51151.91
2022-11-09T18:26:48.231Z,51155.88
2022-11-09T18:29:33.359Z,51159.84
2022-11-09T18:32:18.845Z,51189.69
2022-11-09T18:35:03.953Z,51143.97
2022-11-09T18:37:49.395Z,51149.91
2022-11-09T18:40:34.994Z,51175.75
2022-11-09T18:43:20.501Z,51159.84
2022-11-09T18:46:07.829Z,51126.06
2022-11-09T18:48:53.468Z,51173.78
2022-11-09T18:51:38.704Z,51177.75
2022-11-09T18:54:24.072Z,51167.81
2022-11-09T18:57:09.474Z,51147.94
2022-11-09T18:59:54.366Z,51136.00
2022-11-09T19:02:39.671Z,51155.88
2022-11-09T19:05:25.032Z,51120.09
2022-11-09T19:08:10.267Z,51147.94
2022-11-09T19:10:55.527Z,51167.81
2022-11-09T19:13:41.243Z,51143.97
2022-11-09T19:16:26.917Z,51171.78
2022-11-09T19:19:13.666Z,51155.88
2022-11-09T19:21:59.043Z,51165.81
2022-11-09T19:24:44.422Z,51138.00
2022-11-09T19:27:30.448Z,51173.78
2022-11-09T19:30:15.534Z,51159.84
2022-11-09T19:33:00.868Z,51147.94
2022-11-09T19:36:15.248Z,51167.81
2022-11-09T19:38:55.803Z,51171.78
2022-11-09T19:41:41.324Z,51155.88
2022-11-09T19:44:26.727Z,51167.81
2022-11-09T19:47:11.707Z,51157.88
2022-11-09T19:49:56.946Z,51159.84
2022-11-09T19:52:42.045Z,51139.97
2022-11-09T19:55:28.861Z,51167.81
2022-11-09T19:58:13.900Z,51151.91
2022-11-09T20:01:03.837Z,51175.75
2022-11-09T20:03:50.535Z,51147.94
2022-11-09T20:06:36.915Z,51143.97
2022-11-09T20:09:22.370Z,51136.00
2022-11-09T20:12:26.014Z,51136.00
2022-11-09T20:15:11.348Z,51138.00
2022-11-09T20:17:56.219Z,51136.00
2022-11-09T20:20:41.283Z,51136.00
2022-11-09T20:23:26.538Z,51149.91
2022-11-09T20:26:11.924Z,51136.00
2022-11-09T20:28:57.168Z,51151.91
2022-11-09T20:31:42.275Z,51179.75
2022-11-09T20:34:29.638Z,51175.75
2022-11-09T20:37:15.545Z,51155.88
2022-11-09T20:40:00.499Z,51136.00
2022-11-09T20:42:45.603Z,51171.78
2022-11-09T20:45:31.652Z,51167.81
2022-11-09T20:48:38.651Z,51183.72
2022-11-09T20:51:23.455Z,51167.81
2022-11-09T20:54:08.633Z,51171.78
2022-11-09T20:56:56.030Z,51171.78
2022-11-09T20:59:41.150Z,51122.09
2022-11-09T21:02:26.440Z,51175.75
2022-11-09T21:05:11.940Z,51161.84
2022-11-09T21:07:57.319Z,51149.91
2022-11-09T21:10:42.845Z,51136.00
2022-11-09T21:13:31.386Z,51171.78
2022-11-09T21:16:16.906Z,51136.00
2022-11-09T21:19:02.114Z,51199.63
2022-11-09T21:21:47.614Z,51126.06
2022-11-09T21:24:51.899Z,51167.81
2022-11-09T21:27:58.288Z,51136.00
2022-11-09T21:30:43.483Z,51143.97
2022-11-09T21:33:28.877Z,51191.66
2022-11-09T21:36:15.244Z,51171.78
2022-11-09T21:39:01.836Z,51159.84
2022-11-09T21:41:47.107Z,51143.97
2022-11-09T21:44:32.802Z,51173.78
2022-11-09T21:47:18.436Z,51167.81
2022-11-09T21:50:07.038Z,51167.81
2022-11-09T21:52:56.598Z,51179.75
2022-11-09T21:55:43.208Z,51159.84
2022-11-09T21:58:28.354Z,51151.91
2022-11-09T22:01:14.295Z,51143.97
2022-11-09T22:04:02.053Z,51139.97
2022-11-09T22:06:47.115Z,51167.81
2022-11-09T22:09:57.893Z,51167.81
2022-11-09T22:12:57.824Z,51147.94
2022-11-09T22:16:01.786Z,51165.81
2022-11-09T22:19:05.794Z,51155.88
2022-11-09T22:21:52.928Z,51175.75
2022-11-09T22:24:38.112Z,51151.91
2022-11-09T22:27:23.721Z,51167.81
2022-11-09T22:30:09.394Z,51128.06
2022-11-09T22:32:58.044Z,51183.72
2022-11-09T22:35:43.686Z,51161.84
2022-11-09T22:38:31.382Z,51183.72
2022-11-09T22:41:16.937Z,51167.81
2022-11-09T22:44:02.619Z,51151.91
2022-11-09T22:46:48.988Z,51173.78
2022-11-09T22:49:36.906Z,51159.84
2022-11-09T22:52:22.714Z,51179.75
2022-11-09T22:55:08.289Z,51163.84
2022-11-09T22:57:56.722Z,51147.94
2022-11-09T23:00:42.162Z,51151.91
2022-11-09T23:03:27.629Z,51151.91
2022-11-09T23:06:21.519Z,51155.88
2022-11-09T23:09:06.716Z,51143.97
2022-11-09T23:11:52.212Z,51171.78
2022-11-09T23:14:56.143Z,51197.63
2022-11-09T23:18:00.381Z,51159.84
2022-11-09T23:20:45.840Z,51139.97
2022-11-09T23:23:31.180Z,51187.69
2022-11-09T23:26:17.283Z,51171.78
2022-11-09T23:29:02.501Z,51183.72
2022-11-09T23:31:47.898Z,51169.78
2022-11-09T23:34:33.334Z,51159.84
2022-11-09T23:37:18.625Z,51147.94
2022-11-09T23:40:04.700Z,51171.78
2022-11-09T23:42:49.888Z,51159.84
2022-11-09T23:45:36.392Z,51171.78
2022-11-09T23:48:21.812Z,51171.78
2022-11-09T23:51:07.715Z,51183.72
2022-11-09T23:53:52.889Z,51159.84
2022-11-09T23:56:38.751Z,51185.69
2022-11-09T23:59:23.790Z,51165.81
